Time;durP1;ratioP1;P1;durP2;ratioP2;P2;SDS_P1;SDS_P2;PMS_P1;PMS_P2;Temp;Humidity;BMP_temperature;BMP_pressure;BME280_temperature;BME280_humidity;BME280_pressure;Samples;Min_cycle;Max_cycle;Signal;HPM_P1;HPM_P2
2023/12/11 00:00:51;;;;;;;5.28;1.30;;;20.30;75.10;;;;;;2084888;28;20049;-51
2023/12/11 00:01:52;;;;;;;6.22;1.23;;;20.20;75.00;;;;;;2086711;28;20029;-51
2023/12/11 00:02:52;;;;;;;5.95;1.60;;;20.20;75.00;;;;;;2086941;28;20021;-50
2023/12/11 00:03:53;;;;;;;6.10;1.27;;;20.20;75.00;;;;;;2085748;28;20079;-52
2023/12/11 00:04:54;;;;;;;4.95;1.30;;;20.20;75.00;;;;;;2087518;28;20467;-51
2023/12/11 00:05:54;;;;;;;6.55;1.20;;;20.20;75.00;;;;;;2084588;28;20057;-55
2023/12/11 00:06:55;;;;;;;6.28;1.33;;;20.20;75.10;;;;;;2084268;28;20040;-52
2023/12/11 00:07:56;;;;;;;5.20;1.15;;;20.20;75.00;;;;;;2085679;28;20495;-51
2023/12/11 00:08:56;;;;;;;5.97;1.20;;;20.20;75.00;;;;;;2085702;28;20021;-50
2023/12/11 00:09:57;;;;;;;2.47;1.05;;;20.20;74.90;;;;;;2087712;28;20372;-50
2023/12/11 00:10:58;;;;;;;4.53;1.00;;;20.20;75.00;;;;;;2084250;28;20064;-52
2023/12/11 00:11:58;;;;;;;5.40;1.48;;;20.20;75.00;;;;;;2086827;28;20029;-51
2023/12/11 00:12:59;;;;;;;5.22;1.52;;;20.20;74.90;;;;;;2085491;28;20108;-52
2023/12/11 00:13:59;;;;;;;11.15;1.42;;;20.20;74.90;;;;;;2086958;28;20368;-50
2023/12/11 00:15:00;;;;;;;4.00;0.90;;;20.20;74.90;;;;;;2087452;28;20052;-51
2023/12/11 00:16:01;;;;;;;5.50;1.30;;;20.20;74.90;;;;;;2086502;28;20013;-50
2023/12/11 00:17:02;;;;;;;4.00;1.25;;;20.20;74.90;;;;;;2086557;28;20523;-51
2023/12/11 00:18:02;;;;;;;3.53;1.05;;;20.20;74.90;;;;;;2087536;28;20035;-51
2023/12/11 00:19:03;;;;;;;5.03;1.35;;;20.20;75.00;;;;;;2087939;28;20032;-53
2023/12/11 00:20:04;;;;;;;6.40;1.23;;;20.20;75.00;;;;;;2086450;28;20039;-50
2023/12/11 00:21:06;;;;;;;8.35;2.30;;;20.20;74.90;;;;;;2085574;28;20036;-50
2023/12/11 00:22:06;;;;;;;3.78;1.10;;;20.20;74.90;;;;;;2087209;28;20480;-50
2023/12/11 00:23:07;;;;;;;4.80;1.52;;;20.20;74.90;;;;;;2087989;28;20203;-51
2023/12/11 00:24:08;;;;;;;6.75;1.30;;;20.20;74.90;;;;;;2087614;28;20013;-52
2023/12/11 00:25:10;;;;;;;5.72;1.25;;;20.20;74.80;;;;;;2085229;28;20052;-52
2023/12/11 00:26:11;;;;;;;5.78;1.52;;;20.20;74.80;;;;;;2087544;28;20013;-50
2023/12/11 00:27:11;;;;;;;3.70;1.15;;;20.20;74.80;;;;;;2087240;28;20155;-50
2023/12/11 00:28:12;;;;;;;5.15;1.02;;;20.20;74.80;;;;;;2088118;28;20051;-52
2023/12/11 00:29:14;;;;;;;8.07;1.42;;;20.20;74.80;;;;;;2083587;28;20071;-50
2023/12/11 00:30:14;;;;;;;4.53;1.45;;;20.20;74.80;;;;;;2087535;28;20108;-51
2023/12/11 00:31:15;;;;;;;5.38;1.40;;;20.20;74.80;;;;;;2087842;28;20599;-52
2023/12/11 00:32:15;;;;;;;5.47;1.60;;;20.20;74.70;;;;;;2087528;28;20468;-52
2023/12/11 00:33:16;;;;;;;3.85;1.27;;;20.20;74.70;;;;;;2087379;28;20088;-50
2023/12/11 00:34:17;;;;;;;3.47;1.10;;;20.20;74.70;;;;;;2088257;28;20270;-52
2023/12/11 00:35:17;;;;;;;7.05;1.40;;;20.20;74.70;;;;;;2086429;28;20029;-52
2023/12/11 00:36:18;;;;;;;4.38;1.50;;;20.20;74.70;;;;;;2085467;28;20021;-51
2023/12/11 00:37:18;;;;;;;7.68;1.50;;;20.20;74.70;;;;;;2083664;28;20017;-50
2023/12/11 00:38:19;;;;;;;5.97;1.35;;;20.20;74.60;;;;;;2085176;28;20091;-50
2023/12/11 00:39:20;;;;;;;5.10;1.40;;;20.20;74.60;;;;;;2087591;28;20541;-51
2023/12/11 00:40:20;;;;;;;7.20;1.85;;;20.20;74.60;;;;;;2085641;28;20033;-50
2023/12/11 00:41:21;;;;;;;4.25;1.15;;;20.20;74.60;;;;;;2086967;28;20159;-54
2023/12/11 00:42:21;;;;;;;3.97;1.10;;;20.20;74.60;;;;;;2085747;28;20033;-51
2023/12/11 00:43:22;;;;;;;4.90;1.10;;;20.20;74.60;;;;;;2087293;28;20032;-50
2023/12/11 00:44:23;;;;;;;4.10;1.38;;;20.20;74.60;;;;;;2087110;28;20051;-51
2023/12/11 00:45:23;;;;;;;6.38;1.33;;;20.20;74.60;;;;;;2086805;28;20373;-50
2023/12/11 00:46:24;;;;;;;4.43;1.35;;;20.20;74.60;;;;;;2082749;28;20040;-51
2023/12/11 00:47:25;;;;;;;5.38;1.15;;;20.20;74.60;;;;;;2083727;28;20082;-51
2023/12/11 00:48:25;;;;;;;5.10;1.58;;;20.20;74.60;;;;;;2085619;28;20041;-51
2023/12/11 00:49:26;;;;;;;5.57;1.30;;;20.20;74.60;;;;;;2086111;28;20020;-53
2023/12/11 00:50:27;;;;;;;5.18;1.50;;;20.20;74.60;;;;;;2085941;28;20495;-51
2023/12/11 00:51:27;;;;;;;5.13;1.30;;;20.20;74.60;;;;;;2085221;28;20116;-50
2023/12/11 00:52:28;;;;;;;4.57;1.40;;;20.20;74.60;;;;;;2086991;28;20025;-51
2023/12/11 00:53:28;;;;;;;4.53;1.25;;;20.20;74.60;;;;;;2085674;28;20044;-51
2023/12/11 00:54:29;;;;;;;3.78;1.17;;;20.10;74.50;;;;;;2085059;28;20082;-51
2023/12/11 00:55:30;;;;;;;3.45;1.20;;;20.10;74.40;;;;;;2086990;28;20032;-50
2023/12/11 00:56:30;;;;;;;5.90;2.13;;;20.10;74.40;;;;;;2086001;28;20499;-51
2023/12/11 00:57:31;;;;;;;4.45;1.35;;;20.10;74.40;;;;;;2085922;28;20036;-52
2023/12/11 00:58:31;;;;;;;4.43;1.17;;;20.20;74.50;;;;;;2086209;28;20442;-53
2023/12/11 00:59:32;;;;;;;5.05;1.27;;;20.10;74.40;;;;;;2085512;28;20021;-51
2023/12/11 01:00:33;;;;;;;5.72;1.30;;;20.10;74.40;;;;;;2086781;28;20104;-52
2023/12/11 01:01:33;;;;;;;6.20;1.48;;;20.20;74.40;;;;;;2087610;28;20016;-51
2023/12/11 01:02:34;;;;;;;6.10;1.20;;;20.10;74.40;;;;;;2087018;28;20159;-51
2023/12/11 01:03:36;;;;;;;3.88;1.27;;;20.10;74.40;;;;;;2087537;28;20633;-52
2023/12/11 01:04:37;;;;;;;4.68;1.23;;;20.10;74.40;;;;;;2087373;28;20167;-51
2023/12/11 01:05:37;;;;;;;5.95;1.33;;;20.10;74.40;;;;;;2086740;28;20086;-50
2023/12/11 01:06:38;;;;;;;4.30;1.20;;;20.10;74.40;;;;;;2087390;28;20494;-51
2023/12/11 01:07:39;;;;;;;5.78;1.20;;;20.10;74.40;;;;;;2086297;28;20029;-51
2023/12/11 01:08:39;;;;;;;4.28;1.00;;;20.10;74.50;;;;;;2086832;28;20025;-52
2023/12/11 01:09:41;;;;;;;4.63;1.23;;;20.10;74.40;;;;;;2087897;28;20464;-51
2023/12/11 01:10:42;;;;;;;5.88;1.10;;;20.10;74.40;;;;;;2086528;28;20024;-51
2023/12/11 01:11:42;;;;;;;9.27;1.30;;;20.10;74.40;;;;;;2086969;28;20039;-51
2023/12/11 01:12:43;;;;;;;7.22;1.20;;;20.10;74.40;;;;;;2087452;28;20025;-51
2023/12/11 01:13:44;;;;;;;5.78;1.35;;;20.10;74.40;;;;;;2087049;28;20114;-50
2023/12/11 01:14:44;;;;;;;6.38;1.40;;;20.10;74.30;;;;;;2087459;28;20048;-50
2023/12/11 01:15:45;;;;;;;4.57;1.00;;;20.10;74.40;;;;;;2087136;28;20116;-51
2023/12/11 01:16:45;;;;;;;5.20;1.23;;;20.10;74.40;;;;;;2086722;28;20020;-50
2023/12/11 01:17:46;;;;;;;4.32;1.25;;;20.10;74.30;;;;;;2087715;28;20505;-51
2023/12/11 01:18:47;;;;;;;5.50;1.20;;;20.10;74.30;;;;;;2086767;28;20049;-51
2023/12/11 01:19:47;;;;;;;8.02;1.60;;;20.10;74.40;;;;;;2086994;28;20021;-52
2023/12/11 01:20:48;;;;;;;6.93;1.15;;;20.10;74.40;;;;;;2086341;28;20515;-52
2023/12/11 01:21:48;;;;;;;5.47;1.17;;;20.10;74.40;;;;;;2084843;28;20035;-50
2023/12/11 01:22:49;;;;;;;4.57;1.20;;;20.10;74.40;;;;;;2086551;28;20021;-52
2023/12/11 01:23:50;;;;;;;5.75;1.55;;;20.10;74.30;;;;;;2085394;28;20422;-51
2023/12/11 01:24:50;;;;;;;5.90;1.35;;;20.10;74.20;;;;;;2087358;28;20056;-54
2023/12/11 01:25:51;;;;;;;6.45;1.45;;;20.10;74.20;;;;;;2087043;28;20021;-50
2023/12/11 01:26:51;;;;;;;6.38;1.20;;;20.10;74.20;;;;;;2087039;28;20428;-51
2023/12/11 01:27:52;;;;;;;8.52;1.52;;;20.10;74.20;;;;;;2087300;28;20253;-50
2023/12/11 01:28:53;;;;;;;5.60;1.27;;;20.10;74.20;;;;;;2086464;28;20037;-51
2023/12/11 01:29:53;;;;;;;5.78;1.35;;;20.10;74.20;;;;;;2086553;28;20033;-50
2023/12/11 01:30:54;;;;;;;9.43;1.50;;;20.10;74.20;;;;;;2083496;28;20021;-50
2023/12/11 01:31:55;;;;;;;6.93;1.60;;;20.10;74.20;;;;;;2086661;28;20738;-51
2023/12/11 01:32:55;;;;;;;3.53;1.25;;;20.10;74.10;;;;;;2083366;28;20393;-52
2023/12/11 01:33:56;;;;;;;6.05;1.48;;;20.10;74.20;;;;;;2085408;28;20330;-50
2023/12/11 01:34:56;;;;;;;3.65;1.20;;;20.10;74.20;;;;;;2085868;28;20030;-50
2023/12/11 01:35:57;;;;;;;2.80;0.98;;;20.00;74.10;;;;;;2087025;28;20029;-50
2023/12/11 01:36:59;;;;;;;6.00;1.52;;;20.10;74.20;;;;;;2085320;28;20043;-51
2023/12/11 01:38:00;;;;;;;7.65;1.60;;;20.00;74.20;;;;;;2086904;28;20021;-51
2023/12/11 01:39:00;;;;;;;6.28;1.42;;;20.00;74.20;;;;;;2083110;28;20060;-52
2023/12/11 01:40:05;;;;;;;5.15;1.17;;;20.00;74.20;;;;;;2087225;28;20404;-50
2023/12/11 01:41:05;;;;;;;5.88;1.30;;;20.00;74.10;;;;;;2087143;28;20092;-52
2023/12/11 01:42:06;;;;;;;6.80;2.03;;;20.10;74.70;;;;;;2086944;28;20029;-50
2023/12/11 01:43:16;;;;;;;5.78;1.40;;;20.00;74.10;;;;;;2087356;28;20395;-53
2023/12/11 01:44:17;;;;;;;5.15;1.40;;;20.00;74.10;;;;;;2086776;28;20027;-50
2023/12/11 01:45:17;;;;;;;6.97;1.60;;;20.00;74.10;;;;;;2087259;28;20391;-50
2023/12/11 01:46:18;;;;;;;5.35;1.30;;;20.00;74.20;;;;;;2086944;28;20055;-51
2023/12/11 01:47:19;;;;;;;3.67;1.23;;;20.00;74.20;;;;;;2085426;28;20027;-50
2023/12/11 01:48:20;;;;;;;4.70;1.02;;;20.00;74.10;;;;;;2085553;28;20028;-51
2023/12/11 01:49:20;;;;;;;3.85;1.50;;;20.00;74.20;;;;;;2085825;28;20033;-54
2023/12/11 01:50:21;;;;;;;5.38;1.15;;;20.00;74.20;;;;;;2083458;28;20744;-51
2023/12/11 01:51:22;;;;;;;4.70;1.23;;;20.00;74.10;;;;;;2086647;28;20035;-51
2023/12/11 01:52:24;;;;;;;4.60;1.17;;;20.00;74.10;;;;;;2086808;28;20017;-50
2023/12/11 01:53:26;;;;;;;3.63;1.15;;;20.00;74.20;;;;;;2086999;28;20066;-51
2023/12/11 01:54:27;;;;;;;6.57;1.52;;;20.00;74.20;;;;;;2086799;28;20021;-50
2023/12/11 01:55:29;;;;;;;7.00;1.60;;;20.00;74.10;;;;;;2084780;28;20423;-50
2023/12/11 01:56:30;;;;;;;4.72;2.05;;;20.00;74.10;;;;;;2085397;28;20024;-51
2023/12/11 01:57:31;;;;;;;5.15;1.30;;;20.00;74.10;;;;;;2082877;28;20424;-51
2023/12/11 01:58:32;;;;;;;4.80;1.10;;;20.00;74.10;;;;;;2082339;28;20047;-51
2023/12/11 01:59:33;;;;;;;3.78;1.25;;;20.00;74.10;;;;;;2082567;28;20368;-52
2023/12/11 02:00:34;;;;;;;5.32;1.35;;;20.00;74.10;;;;;;2085966;28;20580;-52
2023/12/11 02:01:36;;;;;;;4.07;1.30;;;20.00;74.10;;;;;;2083536;28;20303;-51
2023/12/11 02:02:37;;;;;;;5.72;1.35;;;20.00;74.10;;;;;;2085465;28;20104;-51
2023/12/11 02:03:38;;;;;;;3.83;1.10;;;20.00;74.00;;;;;;2086153;28;20419;-51
2023/12/11 02:04:39;;;;;;;4.50;1.00;;;20.00;74.00;;;;;;2085602;28;20400;-51
2023/12/11 02:05:43;;;;;;;3.67;1.10;;;20.00;74.00;;;;;;2084129;28;20024;-50
2023/12/11 02:06:43;;;;;;;5.97;1.15;;;20.00;74.70;;;;;;2086457;28;20476;-54
2023/12/11 02:07:44;;;;;;;5.95;1.50;;;20.00;74.10;;;;;;2086608;28;20032;-54
2023/12/11 02:08:46;;;;;;;7.82;1.55;;;20.00;74.10;;;;;;2086832;28;20021;-50
2023/12/11 02:09:46;;;;;;;4.28;1.70;;;20.00;74.10;;;;;;2087466;28;20112;-50
2023/12/11 02:10:48;;;;;;;5.30;1.52;;;20.00;74.10;;;;;;2086835;28;20026;-51
2023/12/11 02:11:50;;;;;;;5.20;1.92;;;20.00;74.10;;;;;;2086236;28;20029;-50
2023/12/11 02:12:50;;;;;;;6.97;1.60;;;20.00;74.10;;;;;;2086569;28;20039;-51
2023/12/11 02:13:51;;;;;;;6.03;1.35;;;20.00;74.10;;;;;;2087180;28;20047;-50
2023/12/11 02:14:51;;;;;;;6.57;1.45;;;20.00;74.00;;;;;;2086994;28;20281;-50
2023/12/11 02:15:52;;;;;;;5.05;1.10;;;20.00;74.10;;;;;;2086851;28;20025;-50
2023/12/11 02:16:53;;;;;;;5.60;1.25;;;20.00;74.10;;;;;;2083612;28;20029;-50
2023/12/11 02:17:53;;;;;;;4.75;1.35;;;20.00;74.10;;;;;;2086325;28;20095;-50
2023/12/11 02:18:54;;;;;;;8.32;1.45;;;19.90;74.00;;;;;;2082335;28;20468;-50
2023/12/11 02:19:55;;;;;;;7.03;1.90;;;19.90;74.00;;;;;;2087170;28;20033;-50
2023/12/11 02:20:55;;;;;;;7.43;1.73;;;19.90;74.00;;;;;;2087032;28;20045;-51
2023/12/11 02:21:56;;;;;;;6.15;1.40;;;19.90;74.00;;;;;;2087078;28;20364;-51
2023/12/11 02:23:00;;;;;;;8.75;1.60;;;19.90;74.10;;;;;;2087101;28;20454;-51
2023/12/11 02:24:22;;;;;;;6.72;1.60;;;19.90;74.70;;;;;;2086089;28;20473;-52
2023/12/11 02:25:23;;;;;;;6.20;1.70;;;19.90;74.00;;;;;;2084770;28;20549;-52
2023/12/11 02:26:24;;;;;;;5.10;1.30;;;19.90;74.00;;;;;;2087247;28;20021;-50
2023/12/11 02:27:26;;;;;;;5.63;1.40;;;19.90;74.00;;;;;;2087157;28;20043;-50
2023/12/11 02:28:27;;;;;;;7.30;1.50;;;19.90;74.00;;;;;;2086721;28;20434;-50
2023/12/11 02:29:27;;;;;;;6.65;1.55;;;20.00;74.10;;;;;;2086881;28;20033;-51
2023/12/11 02:30:31;;;;;;;6.70;2.00;;;19.90;74.00;;;;;;2087401;28;20029;-52
2023/12/11 02:31:31;;;;;;;9.45;1.70;;;20.00;74.00;;;;;;2086341;28;20031;-51
2023/12/11 02:32:32;;;;;;;5.90;1.30;;;20.00;74.00;;;;;;2087439;28;20078;-52
2023/12/11 02:33:33;;;;;;;5.25;1.92;;;20.00;74.00;;;;;;2086131;28;20051;-50
2023/12/11 02:34:33;;;;;;;5.38;1.67;;;20.00;73.90;;;;;;2086862;28;20035;-50
2023/12/11 02:35:37;;;;;;;5.43;1.20;;;19.90;73.80;;;;;;2084919;28;20041;-50
2023/12/11 02:36:38;;;;;;;6.47;1.40;;;19.90;73.90;;;;;;2085479;28;20021;-50
2023/12/11 02:37:39;;;;;;;5.35;1.15;;;19.90;73.90;;;;;;2082900;28;20130;-52
2023/12/11 02:38:39;;;;;;;4.47;1.45;;;19.90;73.80;;;;;;2085983;28;20487;-50
2023/12/11 02:39:40;;;;;;;5.03;1.30;;;19.90;73.80;;;;;;2085163;28;20025;-50
2023/12/11 02:40:40;;;;;;;4.00;1.25;;;19.90;73.90;;;;;;2087140;28;20078;-51
2023/12/11 02:41:44;;;;;;;5.25;1.27;;;19.90;73.90;;;;;;2087384;28;20143;-50
2023/12/11 02:42:48;;;;;;;5.18;1.38;;;19.90;73.90;;;;;;2084830;28;20021;-50
2023/12/11 02:43:49;;;;;;;8.23;1.30;;;19.90;73.90;;;;;;2088446;28;20025;-51
2023/12/11 02:44:49;;;;;;;3.97;1.52;;;19.90;73.90;;;;;;2088575;28;20017;-52
2023/12/11 02:45:50;;;;;;;5.18;1.42;;;19.90;73.90;;;;;;2088357;28;20502;-50
2023/12/11 02:46:50;;;;;;;7.53;1.40;;;19.90;73.90;;;;;;2087997;28;20456;-53
2023/12/11 02:47:51;;;;;;;5.57;1.40;;;19.90;74.00;;;;;;2088430;28;20017;-50
2023/12/11 02:48:52;;;;;;;5.35;1.55;;;19.90;74.00;;;;;;2088439;28;20020;-53
2023/12/11 02:49:52;;;;;;;3.42;1.10;;;19.90;74.00;;;;;;2088185;28;20024;-50
2023/12/11 02:50:53;;;;;;;4.10;1.05;;;19.90;74.00;;;;;;2088295;28;20029;-51
2023/12/11 02:51:53;;;;;;;3.50;1.13;;;19.90;74.00;;;;;;2088640;28;20025;-50
2023/12/11 02:52:54;;;;;;;6.47;1.60;;;19.90;74.00;;;;;;2087048;28;20047;-51
2023/12/11 02:53:54;;;;;;;4.78;1.35;;;19.90;74.00;;;;;;2088410;28;20037;-53
2023/12/11 02:54:56;;;;;;;6.18;1.80;;;19.90;74.00;;;;;;2087923;28;20080;-49
2023/12/11 02:55:56;;;;;;;6.07;1.50;;;19.90;74.00;;;;;;2088480;28;20037;-49
2023/12/11 02:56:57;;;;;;;4.55;1.10;;;19.90;74.00;;;;;;2084059;28;20014;-51
2023/12/11 02:57:59;;;;;;;6.05;1.83;;;19.90;74.00;;;;;;2087912;28;20108;-51
2023/12/11 02:59:00;;;;;;;5.95;1.38;;;19.90;74.60;;;;;;2088158;28;20468;-52
2023/12/11 03:00:01;;;;;;;5.18;1.50;;;19.90;73.90;;;;;;2089033;28;20018;-52
2023/12/11 03:01:01;;;;;;;4.38;1.38;;;19.90;73.90;;;;;;2085193;28;20053;-50
2023/12/11 03:02:03;;;;;;;5.93;1.40;;;19.90;73.90;;;;;;2088352;28;20017;-51
2023/12/11 03:03:03;;;;;;;6.68;1.42;;;19.90;73.90;;;;;;2087684;28;20031;-50
2023/12/11 03:04:04;;;;;;;4.32;1.33;;;19.90;73.80;;;;;;2086999;28;20033;-51
2023/12/11 03:05:05;;;;;;;4.28;1.10;;;19.90;73.80;;;;;;2088593;28;20021;-50
2023/12/11 03:06:06;;;;;;;10.30;1.70;;;19.90;73.80;;;;;;2088483;28;20313;-50
2023/12/11 03:07:06;;;;;;;8.98;1.58;;;19.90;73.80;;;;;;2085293;28;20051;-50
2023/12/11 03:08:07;;;;;;;5.28;1.40;;;19.90;73.90;;;;;;2088697;28;20032;-50
2023/12/11 03:09:08;;;;;;;6.95;1.98;;;19.80;73.80;;;;;;2085481;28;20055;-50
2023/12/11 03:10:09;;;;;;;9.15;1.75;;;19.80;73.80;;;;;;2088069;28;20025;-52
2023/12/11 03:11:10;;;;;;;8.57;1.42;;;19.80;73.90;;;;;;2083881;28;20028;-51
2023/12/11 03:12:10;;;;;;;5.45;1.60;;;19.80;73.90;;;;;;2087173;28;20094;-50
2023/12/11 03:13:11;;;;;;;8.45;1.60;;;19.80;73.90;;;;;;2088304;28;20028;-52
2023/12/11 03:14:11;;;;;;;5.55;1.48;;;19.80;73.80;;;;;;2088038;28;20037;-50
2023/12/11 03:15:12;;;;;;;8.05;1.90;;;19.80;73.90;;;;;;2088115;28;20044;-51
2023/12/11 03:16:13;;;;;;;5.13;1.60;;;19.80;73.80;;;;;;2088565;28;20025;-50
2023/12/11 03:17:14;;;;;;;8.93;1.75;;;19.80;73.80;;;;;;2087764;28;20056;-52
2023/12/11 03:18:15;;;;;;;3.95;1.10;;;19.80;73.80;;;;;;2088316;28;20476;-52
2023/12/11 03:19:16;;;;;;;6.95;1.60;;;19.80;73.80;;;;;;2086684;28;20059;-50
2023/12/11 03:20:17;;;;;;;6.57;1.63;;;19.80;73.80;;;;;;2085934;28;20017;-50
2023/12/11 03:21:17;;;;;;;5.60;1.73;;;19.80;73.70;;;;;;2086983;28;20471;-50
2023/12/11 03:22:18;;;;;;;7.80;1.70;;;19.80;73.80;;;;;;2084203;28;20029;-52
2023/12/11 03:23:19;;;;;;;7.43;2.20;;;19.80;73.80;;;;;;2087693;28;20017;-50
2023/12/11 03:24:19;;;;;;;5.10;1.10;;;19.80;73.80;;;;;;2088447;28;20015;-51
2023/12/11 03:25:20;;;;;;;5.05;1.33;;;19.80;73.80;;;;;;2085385;28;20029;-52
2023/12/11 03:26:21;;;;;;;3.47;1.00;;;19.80;73.80;;;;;;2087797;28;20029;-50
2023/12/11 03:27:22;;;;;;;6.30;1.58;;;19.80;73.80;;;;;;2088561;28;20040;-50
2023/12/11 03:28:24;;;;;;;5.10;1.58;;;19.80;73.80;;;;;;2086825;28;20091;-50
2023/12/11 03:29:25;;;;;;;7.00;1.50;;;19.80;73.80;;;;;;2088026;28;20021;-50
2023/12/11 03:30:25;;;;;;;7.20;1.45;;;19.80;73.90;;;;;;2085775;28;20021;-51
2023/12/11 03:31:26;;;;;;;7.43;1.45;;;19.80;73.90;;;;;;2087965;28;20143;-50
2023/12/11 03:32:27;;;;;;;6.32;1.55;;;19.80;74.20;;;;;;2086413;28;20025;-50
2023/12/11 03:33:28;;;;;;;6.20;1.50;;;19.80;73.90;;;;;;2086063;28;20013;-50
2023/12/11 03:34:28;;;;;;;6.63;1.65;;;19.80;73.80;;;;;;2085635;28;20503;-51
2023/12/11 03:35:29;;;;;;;5.50;1.35;;;19.80;73.80;;;;;;2085179;28;20032;-51
2023/12/11 03:36:29;;;;;;;5.88;1.60;;;19.80;74.40;;;;;;2087325;28;20096;-52
2023/12/11 03:37:30;;;;;;;7.32;1.77;;;19.80;73.80;;;;;;2087841;28;20021;-52
2023/12/11 03:38:31;;;;;;;5.45;1.40;;;19.80;73.80;;;;;;2088364;28;20506;-51
2023/12/11 03:39:31;;;;;;;6.75;1.58;;;19.80;73.90;;;;;;2087912;28;20668;-50
2023/12/11 03:40:32;;;;;;;7.63;1.60;;;19.80;73.90;;;;;;2087946;28;20518;-50
2023/12/11 03:41:33;;;;;;;6.57;1.42;;;19.80;73.90;;;;;;2086066;28;20032;-49
2023/12/11 03:42:34;;;;;;;5.00;1.35;;;19.80;73.80;;;;;;2085018;28;20112;-50
2023/12/11 03:43:35;;;;;;;7.68;1.52;;;19.80;73.90;;;;;;2087579;28;20499;-51
2023/12/11 03:44:35;;;;;;;6.55;1.50;;;19.80;73.90;;;;;;2087844;28;20025;-51
2023/12/11 03:45:36;;;;;;;5.88;1.80;;;19.80;73.90;;;;;;2088605;28;20036;-49
2023/12/11 03:46:37;;;;;;;5.18;1.60;;;19.80;73.90;;;;;;2085651;28;20033;-49
2023/12/11 03:47:37;;;;;;;5.70;1.40;;;19.80;73.80;;;;;;2087944;28;20040;-50
2023/12/11 03:48:38;;;;;;;5.80;1.98;;;19.80;73.80;;;;;;2088003;28;20029;-49
2023/12/11 03:49:38;;;;;;;8.98;1.75;;;19.80;73.80;;;;;;2088243;28;20438;-51
2023/12/11 03:50:39;;;;;;;5.68;1.25;;;19.80;73.80;;;;;;2088257;28;20025;-51
2023/12/11 03:51:40;;;;;;;6.13;1.42;;;19.80;73.80;;;;;;2087429;28;20074;-50
2023/12/11 03:52:40;;;;;;;5.60;1.67;;;19.80;73.80;;;;;;2085953;28;20028;-52
2023/12/11 03:53:41;;;;;;;7.15;1.77;;;19.80;73.80;;;;;;2087192;28;20369;-49
2023/12/11 03:54:42;;;;;;;8.45;1.67;;;19.80;73.80;;;;;;2086041;28;20027;-51
2023/12/11 03:55:42;;;;;;;4.38;1.23;;;19.80;73.80;;;;;;2086673;28;20040;-52
2023/12/11 03:56:43;;;;;;;6.45;1.30;;;19.80;73.90;;;;;;2087634;28;20047;-49
2023/12/11 03:57:43;;;;;;;4.35;1.13;;;19.70;73.90;;;;;;2086272;28;20039;-50
2023/12/11 03:58:44;;;;;;;5.13;1.23;;;19.80;73.90;;;;;;2087930;28;20056;-52
2023/12/11 03:59:45;;;;;;;6.30;1.80;;;19.70;73.80;;;;;;2088088;28;20033;-49
2023/12/11 04:00:45;;;;;;;6.00;1.30;;;19.70;73.80;;;;;;2085799;28;20021;-50
2023/12/11 04:01:46;;;;;;;6.28;1.60;;;19.80;73.80;;;;;;2082833;28;20105;-50
2023/12/11 04:02:46;;;;;;;4.78;1.35;;;19.70;73.70;;;;;;2087306;28;20365;-52
2023/12/11 04:03:47;;;;;;;7.47;1.77;;;19.70;73.70;;;;;;2084841;28;20032;-50
2023/12/11 04:04:48;;;;;;;6.28;1.58;;;19.80;73.80;;;;;;2088172;28;20029;-50
2023/12/11 04:05:48;;;;;;;5.38;1.20;;;19.80;73.80;;;;;;2087490;28;20372;-50
2023/12/11 04:06:49;;;;;;;5.22;1.30;;;19.80;73.80;;;;;;2088370;28;20016;-50
2023/12/11 04:07:50;;;;;;;7.70;2.08;;;19.80;74.30;;;;;;2087491;28;20503;-50
2023/12/11 04:08:50;;;;;;;4.88;1.45;;;19.80;73.70;;;;;;2087774;28;20661;-52
2023/12/11 04:09:51;;;;;;;6.20;1.35;;;19.80;73.70;;;;;;2087919;28;20121;-50
2023/12/11 04:10:51;;;;;;;5.05;1.58;;;19.80;73.70;;;;;;2086632;28;20484;-50
2023/12/11 04:11:52;;;;;;;6.55;1.60;;;19.70;73.70;;;;;;2087164;28;20029;-51
2023/12/11 04:12:53;;;;;;;4.25;1.38;;;19.70;73.70;;;;;;2087961;28;20518;-51
2023/12/11 04:13:53;;;;;;;4.15;1.30;;;19.70;73.70;;;;;;2087440;28;20395;-50
2023/12/11 04:14:54;;;;;;;5.63;1.23;;;19.80;73.80;;;;;;2088276;28;20448;-52
2023/12/11 04:15:55;;;;;;;7.25;1.63;;;19.70;73.70;;;;;;2086946;28;20380;-51
2023/12/11 04:16:55;;;;;;;8.77;1.63;;;19.70;73.70;;;;;;2087721;28;20071;-51
2023/12/11 04:17:56;;;;;;;6.28;1.70;;;19.70;73.70;;;;;;2087810;28;20098;-52
2023/12/11 04:18:56;;;;;;;5.25;1.58;;;19.70;73.70;;;;;;2087661;28;20021;-50
2023/12/11 04:19:57;;;;;;;4.88;1.63;;;19.70;73.70;;;;;;2087611;28;20052;-51
2023/12/11 04:20:58;;;;;;;4.15;1.33;;;19.70;73.60;;;;;;2088071;28;20144;-51
2023/12/11 04:21:59;;;;;;;8.15;1.55;;;19.70;73.60;;;;;;2086955;28;20017;-54
2023/12/11 04:22:59;;;;;;;5.88;1.67;;;19.70;73.70;;;;;;2084151;28;20033;-50
2023/12/11 04:24:00;;;;;;;5.70;1.60;;;19.70;73.60;;;;;;2087428;28;20025;-50
2023/12/11 04:25:01;;;;;;;5.35;1.20;;;19.70;73.70;;;;;;2087221;28;20048;-50
2023/12/11 04:26:01;;;;;;;7.15;1.50;;;19.70;73.70;;;;;;2086262;28;20044;-51
2023/12/11 04:27:02;;;;;;;8.48;1.45;;;19.70;73.70;;;;;;2084591;28;20442;-50
2023/12/11 04:28:03;;;;;;;7.63;1.60;;;19.70;73.70;;;;;;2086646;28;20040;-51
2023/12/11 04:29:04;;;;;;;8.45;2.00;;;19.70;73.70;;;;;;2088069;28;20024;-51
2023/12/11 04:30:05;;;;;;;5.45;1.10;;;19.70;73.70;;;;;;2087229;28;20464;-50
2023/12/11 04:31:05;;;;;;;4.32;1.30;;;19.70;73.70;;;;;;2087488;28;20098;-53
2023/12/11 04:32:06;;;;;;;3.42;1.00;;;19.70;73.70;;;;;;2082069;28;20148;-50
2023/12/11 04:33:07;;;;;;;6.82;1.67;;;19.70;73.70;;;;;;2087051;28;20044;-52
2023/12/11 04:34:07;;;;;;;5.10;1.50;;;19.70;73.70;;;;;;2087939;28;20072;-49
2023/12/11 04:35:08;;;;;;;4.20;1.25;;;19.70;74.30;;;;;;2087352;28;20403;-50
2023/12/11 04:36:09;;;;;;;5.97;1.63;;;19.70;73.70;;;;;;2086945;28;20051;-50
2023/12/11 04:37:09;;;;;;;6.43;1.40;;;19.70;73.60;;;;;;2085597;28;20028;-50
2023/12/11 04:38:10;;;;;;;4.97;1.40;;;19.70;73.60;;;;;;2087215;28;20063;-51
2023/12/11 04:39:12;;;;;;;7.70;1.65;;;19.70;73.60;;;;;;2085403;28;20013;-50
2023/12/11 04:40:13;;;;;;;6.72;1.48;;;19.70;73.60;;;;;;2083961;28;20032;-50
2023/12/11 04:41:13;;;;;;;6.35;1.17;;;19.70;73.60;;;;;;2086155;28;20029;-52
2023/12/11 04:42:14;;;;;;;5.63;1.50;;;19.70;73.60;;;;;;2087357;28;20112;-50
2023/12/11 04:43:15;;;;;;;6.95;1.23;;;19.70;73.60;;;;;;2087126;28;20021;-49
2023/12/11 04:44:15;;;;;;;6.88;1.50;;;19.70;73.60;;;;;;2087158;28;20578;-50
2023/12/11 04:45:16;;;;;;;7.97;1.48;;;19.70;73.70;;;;;;2087119;28;20183;-51
2023/12/11 04:46:16;;;;;;;5.70;1.20;;;19.70;73.70;;;;;;2087206;28;20225;-54
2023/12/11 04:47:17;;;;;;;5.78;1.52;;;19.70;73.70;;;;;;2087445;28;20095;-50
2023/12/11 04:48:18;;;;;;;3.40;1.13;;;19.70;73.70;;;;;;2087337;28;20049;-50
2023/12/11 04:49:18;;;;;;;6.57;1.67;;;19.70;73.60;;;;;;2086947;28;20515;-52
2023/12/11 04:50:19;;;;;;;4.53;1.50;;;19.70;73.60;;;;;;2087891;28;20086;-50
2023/12/11 04:51:20;;;;;;;6.07;1.63;;;19.60;73.60;;;;;;2085326;28;20009;-53
2023/12/11 04:52:20;;;;;;;6.05;1.50;;;19.60;73.60;;;;;;2087174;28;20444;-50
2023/12/11 04:53:21;;;;;;;8.20;1.67;;;19.60;73.60;;;;;;2083112;28;20032;-50
2023/12/11 04:54:22;;;;;;;8.80;1.77;;;19.60;73.60;;;;;;2087285;28;20102;-51
2023/12/11 04:55:23;;;;;;;5.35;1.83;;;19.60;73.60;;;;;;2087089;28;20499;-53
2023/12/11 04:56:24;;;;;;;6.97;1.48;;;19.60;73.60;;;;;;2086875;28;20017;-52
2023/12/11 04:57:24;;;;;;;4.97;1.48;;;19.60;73.60;;;;;;2083439;28;20017;-49
2023/12/11 04:58:26;;;;;;;7.75;1.63;;;19.60;73.60;;;;;;2087314;28;20067;-49
2023/12/11 04:59:26;;;;;;;6.50;1.40;;;19.60;73.60;;;;;;2087216;28;20487;-52
2023/12/11 05:00:27;;;;;;;7.22;1.50;;;19.60;73.60;;;;;;2087791;28;20092;-53
2023/12/11 05:01:28;;;;;;;5.22;1.20;;;19.60;73.60;;;;;;2084035;28;20029;-50
2023/12/11 05:02:28;;;;;;;4.20;1.10;;;19.60;73.60;;;;;;2086724;28;20017;-50
2023/12/11 05:03:29;;;;;;;5.47;1.30;;;19.60;73.50;;;;;;2087126;28;20372;-50
2023/12/11 05:04:30;;;;;;;5.10;1.55;;;19.60;73.50;;;;;;2087407;28;20017;-51
2023/12/11 05:05:30;;;;;;;6.20;1.75;;;19.60;73.50;;;;;;2086934;28;20060;-51
2023/12/11 05:06:31;;;;;;;5.50;1.08;;;19.60;73.50;;;;;;2087914;28;20021;-50
2023/12/11 05:07:32;;;;;;;4.13;1.42;;;19.60;73.50;;;;;;2087254;28;20017;-51
2023/12/11 05:08:32;;;;;;;5.35;1.48;;;19.60;73.50;;;;;;2087587;28;20454;-50
2023/12/11 05:09:33;;;;;;;6.20;1.48;;;19.70;73.50;;;;;;2084913;28;20475;-50
2023/12/11 05:10:34;;;;;;;6.65;1.42;;;19.70;73.50;;;;;;2085248;28;20472;-52
2023/12/11 05:11:34;;;;;;;4.90;1.55;;;19.60;73.50;;;;;;2086670;28;20035;-50
2023/12/11 05:12:35;;;;;;;5.07;1.33;;;19.60;73.50;;;;;;2084430;28;20028;-50
2023/12/11 05:13:35;;;;;;;5.85;1.55;;;19.60;73.50;;;;;;2084124;28;20029;-51
2023/12/11 05:14:36;;;;;;;8.35;1.40;;;19.60;73.50;;;;;;2085004;28;20104;-50
2023/12/11 05:15:37;;;;;;;3.25;1.05;;;19.60;73.50;;;;;;2086806;28;20621;-50
2023/12/11 05:16:37;;;;;;;5.85;1.95;;;19.60;74.10;;;;;;2086869;28;20090;-50
2023/12/11 05:17:38;;;;;;;5.78;1.50;;;19.60;73.50;;;;;;2085636;28;20553;-50